Claude, Oregon
Current Conditions -  °F | °C
As of 5:53 PM on Friday 24 Oct 2014 (Local Time) from KONO Reporting Station
Clear Clear  
Wind Chill: 62°   Ceiling: Unl
Heat Index: 62°   Visibility: 10mi
Dew Point: 49°   Wind: 5mph
Humidity: 62%   Direction: 340°NNW
Pressure: 29.99"   Gusts: NA
Location:  44.0817°N, 117.014°W
Report Text: KONO 242353Z AUTO 34004KT 10SM CLR 17/09 A2999 RMK AO2 SLP155 T01670094 10167 20122 58017
Loading
Personal Weather Stations






























Interactive Weather Map
Tropical Storm Tracking
New forecast layout! Learn more

10-Day Weather Forecast

Advertisements
Track Severe Weather on mobile